sensor_id;sensor_type;location;lat;lon;timestamp;P1;durP1;ratioP1;P2;durP2;ratioP2
60016;SDS011;45869;52.698;6.210;2023-10-19T00:01:57;15.15;;;12.27;;
60016;SDS011;45869;52.698;6.210;2023-10-19T00:04:26;18.27;;;13.20;;
60016;SDS011;45869;52.698;6.210;2023-10-19T00:09:23;17.30;;;12.90;;
60016;SDS011;45869;52.698;6.210;2023-10-19T00:12:09;17.50;;;12.45;;
60016;SDS011;45869;52.698;6.210;2023-10-19T00:14:40;18.92;;;13.68;;
60016;SDS011;45869;52.698;6.210;2023-10-19T00:17:09;17.02;;;13.15;;
60016;SDS011;45869;52.698;6.210;2023-10-19T00:19:36;19.65;;;13.15;;
60016;SDS011;45869;52.698;6.210;2023-10-19T00:22:07;19.77;;;13.65;;
60016;SDS011;45869;52.698;6.210;2023-10-19T00:24:34;19.73;;;14.18;;
60016;SDS011;45869;52.698;6.210;2023-10-19T00:27:00;18.83;;;13.73;;
60016;SDS011;45869;52.698;6.210;2023-10-19T00:29:41;17.50;;;12.90;;
60016;SDS011;45869;52.698;6.210;2023-10-19T00:32:13;19.95;;;13.68;;
60016;SDS011;45869;52.698;6.210;2023-10-19T00:34:40;19.55;;;14.00;;
60016;SDS011;45869;52.698;6.210;2023-10-19T00:37:14;19.15;;;13.55;;
60016;SDS011;45869;52.698;6.210;2023-10-19T00:39:44;18.23;;;13.80;;
60016;SDS011;45869;52.698;6.210;2023-10-19T00:42:18;18.02;;;13.93;;
60016;SDS011;45869;52.698;6.210;2023-10-19T00:44:51;20.10;;;14.60;;
60016;SDS011;45869;52.698;6.210;2023-10-19T00:47:24;20.33;;;14.35;;
60016;SDS011;45869;52.698;6.210;2023-10-19T00:49:55;19.23;;;13.90;;
60016;SDS011;45869;52.698;6.210;2023-10-19T00:52:21;21.90;;;16.13;;
60016;SDS011;45869;52.698;6.210;2023-10-19T00:54:48;20.63;;;14.90;;
60016;SDS011;45869;52.698;6.210;2023-10-19T00:57:16;20.05;;;14.77;;
60016;SDS011;45869;52.698;6.210;2023-10-19T00:59:46;19.90;;;14.75;;
60016;SDS011;45869;52.698;6.210;2023-10-19T01:02:36;17.52;;;13.90;;
60016;SDS011;45869;52.698;6.210;2023-10-19T01:05:08;19.67;;;14.45;;
60016;SDS011;45869;52.698;6.210;2023-10-19T01:07:38;16.23;;;13.25;;
60016;SDS011;45869;52.698;6.210;2023-10-19T01:10:04;16.75;;;12.63;;
60016;SDS011;45869;52.698;6.210;2023-10-19T01:12:37;15.77;;;12.60;;
60016;SDS011;45869;52.698;6.210;2023-10-19T01:15:09;13.57;;;11.60;;
60016;SDS011;45869;52.698;6.210;2023-10-19T01:17:41;16.38;;;13.57;;
60016;SDS011;45869;52.698;6.210;2023-10-19T01:20:09;17.55;;;12.30;;
60016;SDS011;45869;52.698;6.210;2023-10-19T01:22:51;15.20;;;12.50;;
60016;SDS011;45869;52.698;6.210;2023-10-19T01:25:48;14.50;;;11.65;;
60016;SDS011;45869;52.698;6.210;2023-10-19T01:28:21;13.98;;;11.27;;
60016;SDS011;45869;52.698;6.210;2023-10-19T01:30:50;14.13;;;11.35;;
60016;SDS011;45869;52.698;6.210;2023-10-19T01:33:22;15.32;;;11.52;;
60016;SDS011;45869;52.698;6.210;2023-10-19T01:35:49;13.85;;;10.85;;
60016;SDS011;45869;52.698;6.210;2023-10-19T01:38:43;13.93;;;11.35;;
60016;SDS011;45869;52.698;6.210;2023-10-19T01:41:12;13.23;;;10.75;;
60016;SDS011;45869;52.698;6.210;2023-10-19T01:43:39;13.57;;;11.15;;
60016;SDS011;45869;52.698;6.210;2023-10-19T01:46:05;14.70;;;10.32;;
60016;SDS011;45869;52.698;6.210;2023-10-19T01:48:42;13.40;;;11.05;;
60016;SDS011;45869;52.698;6.210;2023-10-19T01:51:10;13.98;;;10.95;;
60016;SDS011;45869;52.698;6.210;2023-10-19T01:53:40;14.43;;;11.27;;
60016;SDS011;45869;52.698;6.210;2023-10-19T01:56:09;13.02;;;10.20;;
60016;SDS011;45869;52.698;6.210;2023-10-19T01:58:39;13.00;;;10.43;;
60016;SDS011;45869;52.698;6.210;2023-10-19T02:01:05;13.48;;;11.27;;
60016;SDS011;45869;52.698;6.210;2023-10-19T02:03:37;12.35;;;10.63;;
60016;SDS011;45869;52.698;6.210;2023-10-19T02:06:10;12.70;;;10.60;;
60016;SDS011;45869;52.698;6.210;2023-10-19T02:08:50;12.82;;;10.70;;
60016;SDS011;45869;52.698;6.210;2023-10-19T02:11:22;13.50;;;10.93;;
60016;SDS011;45869;52.698;6.210;2023-10-19T02:13:53;13.02;;;10.82;;
60016;SDS011;45869;52.698;6.210;2023-10-19T02:16:21;13.27;;;11.38;;
60016;SDS011;45869;52.698;6.210;2023-10-19T02:18:50;14.40;;;11.63;;
60016;SDS011;45869;52.698;6.210;2023-10-19T02:21:17;13.60;;;11.45;;
60016;SDS011;45869;52.698;6.210;2023-10-19T02:23:47;12.63;;;10.57;;
60016;SDS011;45869;52.698;6.210;2023-10-19T02:26:16;15.23;;;12.52;;
60016;SDS011;45869;52.698;6.210;2023-10-19T02:28:45;15.90;;;12.20;;
60016;SDS011;45869;52.698;6.210;2023-10-19T02:31:11;13.80;;;11.45;;
60016;SDS011;45869;52.698;6.210;2023-10-19T02:33:44;12.68;;;10.60;;
60016;SDS011;45869;52.698;6.210;2023-10-19T02:36:17;11.57;;;10.23;;
60016;SDS011;45869;52.698;6.210;2023-10-19T02:38:44;12.57;;;10.15;;
60016;SDS011;45869;52.698;6.210;2023-10-19T02:41:14;13.00;;;11.13;;
60016;SDS011;45869;52.698;6.210;2023-10-19T02:43:41;13.20;;;10.23;;
60016;SDS011;45869;52.698;6.210;2023-10-19T02:46:11;13.65;;;10.40;;
60016;SDS011;45869;52.698;6.210;2023-10-19T02:48:38;11.75;;;9.98;;
60016;SDS011;45869;52.698;6.210;2023-10-19T02:51:09;10.82;;;9.35;;
60016;SDS011;45869;52.698;6.210;2023-10-19T02:53:36;10.65;;;8.80;;
60016;SDS011;45869;52.698;6.210;2023-10-19T02:56:12;11.00;;;9.43;;
60016;SDS011;45869;52.698;6.210;2023-10-19T02:58:40;10.97;;;9.27;;
60016;SDS011;45869;52.698;6.210;2023-10-19T03:01:13;11.35;;;9.73;;
60016;SDS011;45869;52.698;6.210;2023-10-19T03:03:42;10.15;;;8.45;;
60016;SDS011;45869;52.698;6.210;2023-10-19T03:06:09;10.50;;;8.77;;
60016;SDS011;45869;52.698;6.210;2023-10-19T03:08:55;11.95;;;10.32;;
60016;SDS011;45869;52.698;6.210;2023-10-19T03:14:30;10.90;;;9.40;;
60016;SDS011;45869;52.698;6.210;2023-10-19T03:17:03;13.32;;;10.70;;
60016;SDS011;45869;52.698;6.210;2023-10-19T03:19:33;10.75;;;8.93;;
60016;SDS011;45869;52.698;6.210;2023-10-19T03:21:59;11.55;;;9.95;;
60016;SDS011;45869;52.698;6.210;2023-10-19T03:24:26;11.52;;;10.02;;
60016;SDS011;45869;52.698;6.210;2023-10-19T03:27:04;11.60;;;10.15;;
60016;SDS011;45869;52.698;6.210;2023-10-19T03:29:37;13.88;;;10.50;;
60016;SDS011;45869;52.698;6.210;2023-10-19T03:32:04;11.40;;;10.20;;
60016;SDS011;45869;52.698;6.210;2023-10-19T03:34:31;11.50;;;10.30;;
60016;SDS011;45869;52.698;6.210;2023-10-19T03:36:58;11.75;;;9.75;;
60016;SDS011;45869;52.698;6.210;2023-10-19T03:39:31;12.20;;;10.77;;
60016;SDS011;45869;52.698;6.210;2023-10-19T03:41:58;12.15;;;9.68;;
60016;SDS011;45869;52.698;6.210;2023-10-19T03:44:24;11.50;;;9.93;;
60016;SDS011;45869;52.698;6.210;2023-10-19T03:46:51;12.35;;;10.23;;
60016;SDS011;45869;52.698;6.210;2023-10-19T03:49:26;12.40;;;11.02;;
60016;SDS011;45869;52.698;6.210;2023-10-19T03:51:58;12.02;;;10.20;;
60016;SDS011;45869;52.698;6.210;2023-10-19T03:54:27;11.65;;;10.25;;
60016;SDS011;45869;52.698;6.210;2023-10-19T03:56:54;12.35;;;9.85;;
60016;SDS011;45869;52.698;6.210;2023-10-19T03:59:22;11.32;;;9.95;;
60016;SDS011;45869;52.698;6.210;2023-10-19T04:01:54;10.50;;;9.40;;
60016;SDS011;45869;52.698;6.210;2023-10-19T04:04:38;11.98;;;9.52;;
60016;SDS011;45869;52.698;6.210;2023-10-19T04:07:08;10.18;;;8.52;;
60016;SDS011;45869;52.698;6.210;2023-10-19T04:09:53;10.63;;;9.45;;
60016;SDS011;45869;52.698;6.210;2023-10-19T04:12:32;9.70;;;8.70;;
60016;SDS011;45869;52.698;6.210;2023-10-19T04:15:00;10.38;;;9.27;;
60016;SDS011;45869;52.698;6.210;2023-10-19T04:17:39;10.07;;;8.65;;
60016;SDS011;45869;52.698;6.210;2023-10-19T04:20:17;11.65;;;9.70;;
60016;SDS011;45869;52.698;6.210;2023-10-19T04:22:54;10.35;;;8.90;;
60016;SDS011;45869;52.698;6.210;2023-10-19T04:25:20;9.75;;;8.75;;
60016;SDS011;45869;52.698;6.210;2023-10-19T04:27:50;12.32;;;10.15;;
60016;SDS011;45869;52.698;6.210;2023-10-19T04:30:17;12.63;;;10.93;;
60016;SDS011;45869;52.698;6.210;2023-10-19T04:32:47;12.00;;;10.57;;
60016;SDS011;45869;52.698;6.210;2023-10-19T04:35:13;12.00;;;10.75;;
60016;SDS011;45869;52.698;6.210;2023-10-19T04:37:46;12.83;;;11.27;;
60016;SDS011;45869;52.698;6.210;2023-10-19T04:40:12;12.70;;;11.00;;
60016;SDS011;45869;52.698;6.210;2023-10-19T04:42:38;11.48;;;10.05;;
60016;SDS011;45869;52.698;6.210;2023-10-19T04:45:07;12.70;;;10.70;;
60016;SDS011;45869;52.698;6.210;2023-10-19T04:47:34;11.98;;;10.50;;
60016;SDS011;45869;52.698;6.210;2023-10-19T04:50:04;14.98;;;13.07;;
60016;SDS011;45869;52.698;6.210;2023-10-19T04:52:31;12.88;;;11.48;;
60016;SDS011;45869;52.698;6.210;2023-10-19T04:55:00;12.93;;;11.52;;
60016;SDS011;45869;52.698;6.210;2023-10-19T04:57:26;12.30;;;11.00;;
60016;SDS011;45869;52.698;6.210;2023-10-19T04:59:52;12.95;;;11.13;;
60016;SDS011;45869;52.698;6.210;2023-10-19T05:02:18;12.52;;;11.05;;
60016;SDS011;45869;52.698;6.210;2023-10-19T05:04:44;12.60;;;11.30;;
60016;SDS011;45869;52.698;6.210;2023-10-19T05:07:11;14.63;;;12.20;;
60016;SDS011;45869;52.698;6.210;2023-10-19T05:09:37;13.73;;;12.32;;
60016;SDS011;45869;52.698;6.210;2023-10-19T05:12:04;14.85;;;12.75;;
60016;SDS011;45869;52.698;6.210;2023-10-19T05:14:34;13.93;;;11.98;;
60016;SDS011;45869;52.698;6.210;2023-10-19T05:17:01;13.07;;;11.48;;
60016;SDS011;45869;52.698;6.210;2023-10-19T05:19:30;13.93;;;11.82;;
60016;SDS011;45869;52.698;6.210;2023-10-19T05:21:56;14.07;;;12.43;;
60016;SDS011;45869;52.698;6.210;2023-10-19T05:24:22;14.20;;;12.70;;
60016;SDS011;45869;52.698;6.210;2023-10-19T05:26:49;15.68;;;13.98;;
60016;SDS011;45869;52.698;6.210;2023-10-19T05:29:15;13.85;;;12.35;;
60016;SDS011;45869;52.698;6.210;2023-10-19T05:31:47;19.05;;;15.80;;
60016;SDS011;45869;52.698;6.210;2023-10-19T05:34:18;15.57;;;13.70;;
60016;SDS011;45869;52.698;6.210;2023-10-19T05:36:44;13.95;;;12.27;;
60016;SDS011;45869;52.698;6.210;2023-10-19T05:39:13;14.88;;;12.98;;
60016;SDS011;45869;52.698;6.210;2023-10-19T05:41:39;16.33;;;14.40;;
60016;SDS011;45869;52.698;6.210;2023-10-19T05:44:05;14.20;;;12.70;;
60016;SDS011;45869;52.698;6.210;2023-10-19T05:46:31;17.20;;;14.85;;
60016;SDS011;45869;52.698;6.210;2023-10-19T05:48:58;16.20;;;14.45;;
60016;SDS011;45869;52.698;6.210;2023-10-19T05:51:24;16.05;;;14.38;;
60016;SDS011;45869;52.698;6.210;2023-10-19T05:53:51;15.52;;;13.32;;
60016;SDS011;45869;52.698;6.210;2023-10-19T05:56:18;15.65;;;13.90;;
60016;SDS011;45869;52.698;6.210;2023-10-19T05:58:46;16.08;;;13.77;;
60016;SDS011;45869;52.698;6.210;2023-10-19T06:01:16;17.98;;;15.02;;
60016;SDS011;45869;52.698;6.210;2023-10-19T06:03:43;16.42;;;13.63;;
60016;SDS011;45869;52.698;6.210;2023-10-19T06:06:10;18.38;;;15.68;;
60016;SDS011;45869;52.698;6.210;2023-10-19T06:08:36;18.85;;;15.38;;
60016;SDS011;45869;52.698;6.210;2023-10-19T06:11:02;21.48;;;16.23;;
60016;SDS011;45869;52.698;6.210;2023-10-19T06:13:28;17.95;;;15.98;;
60016;SDS011;45869;52.698;6.210;2023-10-19T06:15:56;15.82;;;14.00;;
60016;SDS011;45869;52.698;6.210;2023-10-19T06:18:22;15.57;;;13.38;;
60016;SDS011;45869;52.698;6.210;2023-10-19T06:20:49;16.52;;;14.30;;
60016;SDS011;45869;52.698;6.210;2023-10-19T06:23:16;17.38;;;14.63;;
60016;SDS011;45869;52.698;6.210;2023-10-19T06:25:46;15.52;;;13.25;;
60016;SDS011;45869;52.698;6.210;2023-10-19T06:28:12;19.15;;;16.85;;
60016;SDS011;45869;52.698;6.210;2023-10-19T06:30:41;16.63;;;14.82;;
60016;SDS011;45869;52.698;6.210;2023-10-19T06:33:07;18.13;;;16.15;;
60016;SDS011;45869;52.698;6.210;2023-10-19T06:35:34;16.23;;;14.32;;
60016;SDS011;45869;52.698;6.210;2023-10-19T06:38:02;15.82;;;13.77;;
60016;SDS011;45869;52.698;6.210;2023-10-19T06:40:29;15.48;;;13.82;;
60016;SDS011;45869;52.698;6.210;2023-10-19T06:42:56;15.45;;;13.80;;
60016;SDS011;45869;52.698;6.210;2023-10-19T06:45:28;20.52;;;16.75;;
60016;SDS011;45869;52.698;6.210;2023-10-19T06:47:57;16.15;;;14.40;;
60016;SDS011;45869;52.698;6.210;2023-10-19T06:50:25;18.48;;;15.73;;
60016;SDS011;45869;52.698;6.210;2023-10-19T06:52:52;18.48;;;16.35;;
60016;SDS011;45869;52.698;6.210;2023-10-19T06:55:19;19.00;;;16.65;;
60016;SDS011;45869;52.698;6.210;2023-10-19T06:57:49;16.52;;;14.75;;
60016;SDS011;45869;52.698;6.210;2023-10-19T07:00:19;15.90;;;13.90;;
60016;SDS011;45869;52.698;6.210;2023-10-19T07:02:49;17.52;;;15.18;;
60016;SDS011;45869;52.698;6.210;2023-10-19T07:05:16;16.73;;;14.75;;
60016;SDS011;45869;52.698;6.210;2023-10-19T07:07:54;20.25;;;14.85;;
60016;SDS011;45869;52.698;6.210;2023-10-19T07:10:21;16.55;;;14.48;;
60016;SDS011;45869;52.698;6.210;2023-10-19T07:12:48;18.52;;;15.63;;
60016;SDS011;45869;52.698;6.210;2023-10-19T07:15:16;18.73;;;16.23;;
60016;SDS011;45869;52.698;6.210;2023-10-19T07:17:47;18.60;;;15.93;;
60016;SDS011;45869;52.698;6.210;2023-10-19T07:20:14;17.15;;;15.25;;
60016;SDS011;45869;52.698;6.210;2023-10-19T07:25:28;17.15;;;14.60;;
60016;SDS011;45869;52.698;6.210;2023-10-19T07:27:54;20.98;;;17.05;;
60016;SDS011;45869;52.698;6.210;2023-10-19T07:30:21;19.88;;;14.68;;
60016;SDS011;45869;52.698;6.210;2023-10-19T07:32:53;18.70;;;16.07;;
60016;SDS011;45869;52.698;6.210;2023-10-19T07:35:23;20.63;;;15.52;;
60016;SDS011;45869;52.698;6.210;2023-10-19T07:37:53;16.70;;;14.80;;
60016;SDS011;45869;52.698;6.210;2023-10-19T07:40:19;18.58;;;15.07;;
60016;SDS011;45869;52.698;6.210;2023-10-19T07:42:45;17.95;;;14.98;;
60016;SDS011;45869;52.698;6.210;2023-10-19T07:45:14;16.45;;;13.88;;
60016;SDS011;45869;52.698;6.210;2023-10-19T07:47:40;18.00;;;14.75;;
60016;SDS011;45869;52.698;6.210;2023-10-19T07:50:10;17.08;;;15.02;;
60016;SDS011;45869;52.698;6.210;2023-10-19T07:52:46;18.27;;;15.13;;
60016;SDS011;45869;52.698;6.210;2023-10-19T07:55:15;16.83;;;14.55;;
60016;SDS011;45869;52.698;6.210;2023-10-19T07:57:42;16.70;;;13.88;;
60016;SDS011;45869;52.698;6.210;2023-10-19T08:00:08;20.23;;;16.52;;
60016;SDS011;45869;52.698;6.210;2023-10-19T08:02:35;21.25;;;15.98;;
60016;SDS011;45869;52.698;6.210;2023-10-19T08:05:03;17.05;;;14.18;;
60016;SDS011;45869;52.698;6.210;2023-10-19T08:07:31;21.50;;;16.75;;
60016;SDS011;45869;52.698;6.210;2023-10-19T08:10:02;19.17;;;14.80;;
60016;SDS011;45869;52.698;6.210;2023-10-19T08:12:30;19.17;;;15.65;;
60016;SDS011;45869;52.698;6.210;2023-10-19T08:14:58;17.05;;;13.60;;
60016;SDS011;45869;52.698;6.210;2023-10-19T08:17:24;17.05;;;15.00;;
60016;SDS011;45869;52.698;6.210;2023-10-19T08:19:50;18.60;;;15.23;;
60016;SDS011;45869;52.698;6.210;2023-10-19T08:22:16;15.50;;;13.43;;
60016;SDS011;45869;52.698;6.210;2023-10-19T08:24:42;18.95;;;14.00;;
60016;SDS011;45869;52.698;6.210;2023-10-19T08:27:10;17.33;;;14.52;;
60016;SDS011;45869;52.698;6.210;2023-10-19T08:29:38;18.48;;;14.40;;
60016;SDS011;45869;52.698;6.210;2023-10-19T08:32:04;17.48;;;13.88;;
60016;SDS011;45869;52.698;6.210;2023-10-19T08:34:35;19.02;;;15.38;;
60016;SDS011;45869;52.698;6.210;2023-10-19T08:37:01;16.27;;;13.40;;
60016;SDS011;45869;52.698;6.210;2023-10-19T08:39:29;16.88;;;14.15;;
60016;SDS011;45869;52.698;6.210;2023-10-19T08:42:01;18.30;;;15.38;;
60016;SDS011;45869;52.698;6.210;2023-10-19T08:44:28;16.42;;;13.63;;
60016;SDS011;45869;52.698;6.210;2023-10-19T08:46:58;18.42;;;13.73;;
60016;SDS011;45869;52.698;6.210;2023-10-19T08:49:30;15.63;;;13.43;;
60016;SDS011;45869;52.698;6.210;2023-10-19T08:51:56;17.75;;;13.98;;
60016;SDS011;45869;52.698;6.210;2023-10-19T08:54:29;19.85;;;14.02;;
60016;SDS011;45869;52.698;6.210;2023-10-19T08:56:55;16.48;;;12.75;;
60016;SDS011;45869;52.698;6.210;2023-10-19T08:59:21;15.07;;;12.68;;
60016;SDS011;45869;52.698;6.210;2023-10-19T09:01:57;16.20;;;14.00;;
60016;SDS011;45869;52.698;6.210;2023-10-19T09:04:29;18.73;;;13.80;;
60016;SDS011;45869;52.698;6.210;2023-10-19T09:06:56;19.13;;;14.27;;
60016;SDS011;45869;52.698;6.210;2023-10-19T09:09:32;14.73;;;12.25;;
60016;SDS011;45869;52.698;6.210;2023-10-19T09:12:26;18.48;;;14.00;;
60016;SDS011;45869;52.698;6.210;2023-10-19T09:14:52;17.98;;;13.10;;
60016;SDS011;45869;52.698;6.210;2023-10-19T09:17:28;14.95;;;12.52;;
60016;SDS011;45869;52.698;6.210;2023-10-19T09:19:55;14.90;;;12.60;;
60016;SDS011;45869;52.698;6.210;2023-10-19T09:22:21;15.02;;;12.02;;
60016;SDS011;45869;52.698;6.210;2023-10-19T09:24:51;15.52;;;12.90;;
60016;SDS011;45869;52.698;6.210;2023-10-19T09:27:20;16.90;;;13.20;;
60016;SDS011;45869;52.698;6.210;2023-10-19T09:29:47;15.27;;;10.73;;
60016;SDS011;45869;52.698;6.210;2023-10-19T09:32:16;15.73;;;13.18;;
60016;SDS011;45869;52.698;6.210;2023-10-19T09:34:44;15.85;;;13.07;;
60016;SDS011;45869;52.698;6.210;2023-10-19T09:37:11;16.15;;;12.25;;
60016;SDS011;45869;52.698;6.210;2023-10-19T09:39:40;18.08;;;12.82;;
60016;SDS011;45869;52.698;6.210;2023-10-19T09:42:08;13.52;;;12.07;;
60016;SDS011;45869;52.698;6.210;2023-10-19T09:44:44;15.23;;;12.13;;
60016;SDS011;45869;52.698;6.210;2023-10-19T09:47:26;13.82;;;11.00;;
60016;SDS011;45869;52.698;6.210;2023-10-19T09:49:52;14.48;;;11.55;;
60016;SDS011;45869;52.698;6.210;2023-10-19T09:52:19;16.88;;;13.05;;
60016;SDS011;45869;52.698;6.210;2023-10-19T09:57:52;18.30;;;14.15;;
60016;SDS011;45869;52.698;6.210;2023-10-19T10:00:19;17.63;;;13.27;;
60016;SDS011;45869;52.698;6.210;2023-10-19T10:02:49;16.98;;;11.60;;
60016;SDS011;45869;52.698;6.210;2023-10-19T10:10:48;15.13;;;11.93;;
60016;SDS011;45869;52.698;6.210;2023-10-19T10:15:52;16.38;;;13.07;;
60016;SDS011;45869;52.698;6.210;2023-10-19T10:18:29;15.43;;;12.83;;
60016;SDS011;45869;52.698;6.210;2023-10-19T10:21:06;13.95;;;11.10;;
60016;SDS011;45869;52.698;6.210;2023-10-19T10:23:45;13.52;;;10.52;;
60016;SDS011;45869;52.698;6.210;2023-10-19T10:26:13;12.82;;;10.85;;
60016;SDS011;45869;52.698;6.210;2023-10-19T10:28:45;12.18;;;10.88;;
60016;SDS011;45869;52.698;6.210;2023-10-19T10:31:15;14.30;;;11.35;;
60016;SDS011;45869;52.698;6.210;2023-10-19T10:34:03;13.52;;;10.77;;
60016;SDS011;45869;52.698;6.210;2023-10-19T10:36:29;15.38;;;11.32;;
60016;SDS011;45869;52.698;6.210;2023-10-19T10:39:15;15.27;;;11.32;;
60016;SDS011;45869;52.698;6.210;2023-10-19T10:41:50;14.60;;;10.30;;
60016;SDS011;45869;52.698;6.210;2023-10-19T10:44:20;13.00;;;10.15;;
60016;SDS011;45869;52.698;6.210;2023-10-19T10:46:48;13.52;;;9.85;;
60016;SDS011;45869;52.698;6.210;2023-10-19T10:49:20;12.45;;;9.68;;
60016;SDS011;45869;52.698;6.210;2023-10-19T10:51:49;13.50;;;10.65;;
60016;SDS011;45869;52.698;6.210;2023-10-19T10:54:15;14.70;;;10.05;;
60016;SDS011;45869;52.698;6.210;2023-10-19T10:56:46;15.05;;;10.48;;
60016;SDS011;45869;52.698;6.210;2023-10-19T10:59:13;16.50;;;10.90;;
60016;SDS011;45869;52.698;6.210;2023-10-19T11:01:39;12.07;;;10.13;;
60016;SDS011;45869;52.698;6.210;2023-10-19T11:04:09;13.82;;;10.13;;
60016;SDS011;45869;52.698;6.210;2023-10-19T11:06:45;16.30;;;11.02;;
60016;SDS011;45869;52.698;6.210;2023-10-19T11:09:11;13.00;;;9.82;;
60016;SDS011;45869;52.698;6.210;2023-10-19T11:11:55;12.88;;;9.65;;
60016;SDS011;45869;52.698;6.210;2023-10-19T11:14:21;13.55;;;10.18;;
60016;SDS011;45869;52.698;6.210;2023-10-19T11:16:49;12.10;;;9.27;;
60016;SDS011;45869;52.698;6.210;2023-10-19T11:19:15;14.40;;;9.23;;
60016;SDS011;45869;52.698;6.210;2023-10-19T11:21:54;11.90;;;8.85;;
60016;SDS011;45869;52.698;6.210;2023-10-19T11:24:26;11.50;;;8.88;;
60016;SDS011;45869;52.698;6.210;2023-10-19T11:26:55;12.70;;;9.00;;
60016;SDS011;45869;52.698;6.210;2023-10-19T11:29:21;12.30;;;8.38;;
60016;SDS011;45869;52.698;6.210;2023-10-19T11:31:56;11.88;;;8.07;;
60016;SDS011;45869;52.698;6.210;2023-10-19T11:34:24;11.63;;;8.68;;
60016;SDS011;45869;52.698;6.210;2023-10-19T11:36:54;12.32;;;8.10;;
60016;SDS011;45869;52.698;6.210;2023-10-19T11:39:24;10.40;;;7.55;;
60016;SDS011;45869;52.698;6.210;2023-10-19T11:41:53;10.90;;;7.32;;
60016;SDS011;45869;52.698;6.210;2023-10-19T11:44:20;12.00;;;7.82;;
60016;SDS011;45869;52.698;6.210;2023-10-19T11:46:47;13.40;;;8.50;;
60016;SDS011;45869;52.698;6.210;2023-10-19T11:49:13;10.65;;;8.00;;
60016;SDS011;45869;52.698;6.210;2023-10-19T11:51:42;11.88;;;8.65;;
60016;SDS011;45869;52.698;6.210;2023-10-19T11:54:08;10.25;;;8.55;;
60016;SDS011;45869;52.698;6.210;2023-10-19T11:56:35;11.88;;;8.38;;
60016;SDS011;45869;52.698;6.210;2023-10-19T11:59:01;13.65;;;10.07;;
60016;SDS011;45869;52.698;6.210;2023-10-19T12:01:27;15.73;;;10.38;;
60016;SDS011;45869;52.698;6.210;2023-10-19T12:04:06;14.35;;;9.70;;
60016;SDS011;45869;52.698;6.210;2023-10-19T12:06:32;13.48;;;9.80;;
60016;SDS011;45869;52.698;6.210;2023-10-19T12:09:01;12.13;;;8.63;;
60016;SDS011;45869;52.698;6.210;2023-10-19T12:11:39;14.15;;;9.98;;
60016;SDS011;45869;52.698;6.210;2023-10-19T12:14:05;13.60;;;9.82;;
60016;SDS011;45869;52.698;6.210;2023-10-19T12:16:36;15.23;;;10.80;;
60016;SDS011;45869;52.698;6.210;2023-10-19T12:19:04;11.55;;;9.30;;
60016;SDS011;45869;52.698;6.210;2023-10-19T12:21:30;13.25;;;9.05;;
60016;SDS011;45869;52.698;6.210;2023-10-19T12:23:56;11.45;;;8.98;;
60016;SDS011;45869;52.698;6.210;2023-10-19T12:26:24;14.95;;;11.10;;
60016;SDS011;45869;52.698;6.210;2023-10-19T12:28:50;14.63;;;10.30;;
60016;SDS011;45869;52.698;6.210;2023-10-19T12:31:19;15.43;;;11.32;;
60016;SDS011;45869;52.698;6.210;2023-10-19T12:33:47;13.20;;;10.85;;
60016;SDS011;45869;52.698;6.210;2023-10-19T12:36:13;14.20;;;11.23;;
60016;SDS011;45869;52.698;6.210;2023-10-19T12:39:00;16.35;;;13.55;;
60016;SDS011;45869;52.698;6.210;2023-10-19T12:41:28;15.90;;;11.98;;
60016;SDS011;45869;52.698;6.210;2023-10-19T12:43:54;17.55;;;12.75;;
60016;SDS011;45869;52.698;6.210;2023-10-19T12:46:25;16.73;;;13.15;;
60016;SDS011;45869;52.698;6.210;2023-10-19T12:48:55;17.05;;;12.13;;
60016;SDS011;45869;52.698;6.210;2023-10-19T12:51:24;16.95;;;12.60;;
60016;SDS011;45869;52.698;6.210;2023-10-19T12:54:00;18.25;;;13.68;;
60016;SDS011;45869;52.698;6.210;2023-10-19T12:56:28;15.50;;;13.10;;
60016;SDS011;45869;52.698;6.210;2023-10-19T12:58:58;17.50;;;13.18;;
60016;SDS011;45869;52.698;6.210;2023-10-19T13:01:24;16.15;;;12.60;;
60016;SDS011;45869;52.698;6.210;2023-10-19T13:03:53;20.50;;;13.90;;
60016;SDS011;45869;52.698;6.210;2023-10-19T13:06:19;14.00;;;11.35;;
60016;SDS011;45869;52.698;6.210;2023-10-19T13:08:45;17.60;;;12.27;;
60016;SDS011;45869;52.698;6.210;2023-10-19T13:11:11;17.45;;;14.25;;
60016;SDS011;45869;52.698;6.210;2023-10-19T13:13:40;21.95;;;13.25;;
60016;SDS011;45869;52.698;6.210;2023-10-19T13:16:06;20.02;;;15.52;;
60016;SDS011;45869;52.698;6.210;2023-10-19T13:18:34;21.85;;;15.43;;
60016;SDS011;45869;52.698;6.210;2023-10-19T13:21:00;17.90;;;14.00;;
60016;SDS011;45869;52.698;6.210;2023-10-19T13:23:32;18.90;;;13.80;;
60016;SDS011;45869;52.698;6.210;2023-10-19T13:26:01;21.75;;;14.48;;
60016;SDS011;45869;52.698;6.210;2023-10-19T13:28:42;20.17;;;14.65;;
60016;SDS011;45869;52.698;6.210;2023-10-19T13:31:08;19.13;;;14.85;;
60016;SDS011;45869;52.698;6.210;2023-10-19T13:33:37;20.73;;;15.25;;
60016;SDS011;45869;52.698;6.210;2023-10-19T13:36:03;18.10;;;15.05;;
60016;SDS011;45869;52.698;6.210;2023-10-19T13:38:33;20.80;;;16.40;;
60016;SDS011;45869;52.698;6.210;2023-10-19T13:41:09;18.55;;;14.70;;
60016;SDS011;45869;52.698;6.210;2023-10-19T13:43:35;18.20;;;15.13;;
60016;SDS011;45869;52.698;6.210;2023-10-19T13:46:05;17.83;;;15.30;;
60016;SDS011;45869;52.698;6.210;2023-10-19T13:48:31;24.35;;;17.77;;
60016;SDS011;45869;52.698;6.210;2023-10-19T13:50:57;21.95;;;16.45;;
60016;SDS011;45869;52.698;6.210;2023-10-19T13:53:39;24.73;;;17.55;;
60016;SDS011;45869;52.698;6.210;2023-10-19T13:56:12;22.80;;;18.60;;
60016;SDS011;45869;52.698;6.210;2023-10-19T13:58:42;24.83;;;19.42;;
60016;SDS011;45869;52.698;6.210;2023-10-19T14:01:08;25.45;;;18.23;;
60016;SDS011;45869;52.698;6.210;2023-10-19T14:03:36;24.67;;;19.75;;
60016;SDS011;45869;52.698;6.210;2023-10-19T14:06:02;29.65;;;19.70;;
60016;SDS011;45869;52.698;6.210;2023-10-19T14:08:29;28.58;;;21.25;;
60016;SDS011;45869;52.698;6.210;2023-10-19T14:11:02;28.73;;;22.23;;
60016;SDS011;45869;52.698;6.210;2023-10-19T14:13:28;27.65;;;20.88;;
60016;SDS011;45869;52.698;6.210;2023-10-19T14:15:54;30.50;;;21.73;;
60016;SDS011;45869;52.698;6.210;2023-10-19T14:18:21;30.20;;;22.73;;
60016;SDS011;45869;52.698;6.210;2023-10-19T14:20:47;33.58;;;23.85;;
60016;SDS011;45869;52.698;6.210;2023-10-19T14:23:13;33.08;;;23.13;;
60016;SDS011;45869;52.698;6.210;2023-10-19T14:25:42;35.13;;;23.35;;
60016;SDS011;45869;52.698;6.210;2023-10-19T14:28:09;33.35;;;23.65;;
60016;SDS011;45869;52.698;6.210;2023-10-19T14:30:43;29.65;;;21.83;;
60016;SDS011;45869;52.698;6.210;2023-10-19T14:33:10;31.52;;;22.70;;
60016;SDS011;45869;52.698;6.210;2023-10-19T14:35:36;34.75;;;24.95;;
60016;SDS011;45869;52.698;6.210;2023-10-19T14:38:06;33.10;;;23.75;;
60016;SDS011;45869;52.698;6.210;2023-10-19T14:40:40;36.53;;;23.50;;
60016;SDS011;45869;52.698;6.210;2023-10-19T14:45:41;29.77;;;20.95;;
60016;SDS011;45869;52.698;6.210;2023-10-19T14:48:08;30.00;;;21.20;;
60016;SDS011;45869;52.698;6.210;2023-10-19T14:50:38;27.77;;;21.13;;
60016;SDS011;45869;52.698;6.210;2023-10-19T14:53:15;28.02;;;20.60;;
60016;SDS011;45869;52.698;6.210;2023-10-19T14:58:37;29.45;;;19.52;;
60016;SDS011;45869;52.698;6.210;2023-10-19T15:01:03;25.33;;;19.25;;
60016;SDS011;45869;52.698;6.210;2023-10-19T15:03:31;24.58;;;18.98;;